createdAt,value
2018-06-17T00:00:15.635Z,41.63
2018-06-17T00:02:45.509Z,37.67
2018-06-17T00:05:14.586Z,39.65
2018-06-17T00:07:43.574Z,39.38
2018-06-17T00:10:12.595Z,43.90
2018-06-17T00:12:42.138Z,41.92
2018-06-17T00:15:12.354Z,38.78
2018-06-17T00:17:41.363Z,43.67
2018-06-17T00:20:10.431Z,42.13
2018-06-17T00:22:39.451Z,41.45
2018-06-17T00:25:08.537Z,44.00
2018-06-17T00:27:37.579Z,43.00
2018-06-17T00:30:06.573Z,42.15
2018-06-17T00:32:35.613Z,37.45
2018-06-17T00:35:05.523Z,39.92
2018-06-17T00:37:34.534Z,39.47
2018-06-17T00:40:03.549Z,40.55
2018-06-17T00:42:32.624Z,40.83
2018-06-17T00:45:01.715Z,39.75
2018-06-17T00:47:30.768Z,36.90
2018-06-17T00:49:59.802Z,40.95
2018-06-17T00:52:28.835Z,36.38
2018-06-17T00:54:57.873Z,43.17
2018-06-17T00:57:39.257Z,39.60
2018-06-17T01:00:08.316Z,39.75
2018-06-17T01:02:37.402Z,44.25
2018-06-17T01:05:06.762Z,41.85
2018-06-17T01:07:35.821Z,40.27
2018-06-17T01:10:04.823Z,38.00
2018-06-17T01:12:33.947Z,36.77
2018-06-17T01:15:02.976Z,41.18
2018-06-17T01:17:32.020Z,42.93
2018-06-17T01:20:00.982Z,45.63
2018-06-17T01:22:29.865Z,40.83
2018-06-17T01:24:59.010Z,38.28
2018-06-17T01:27:28.169Z,40.60
2018-06-17T01:29:58.416Z,39.34
2018-06-17T01:32:27.450Z,40.40
2018-06-17T01:34:56.442Z,40.70
2018-06-17T01:37:25.479Z,38.60
2018-06-17T01:39:54.599Z,40.33
2018-06-17T01:42:23.581Z,40.75
2018-06-17T01:44:52.594Z,44.40
2018-06-17T01:47:21.622Z,41.95
2018-06-17T01:49:50.773Z,39.42
2018-06-17T01:52:19.812Z,40.28
2018-06-17T01:54:48.960Z,39.42
2018-06-17T01:57:17.967Z,44.53
2018-06-17T01:59:46.998Z,45.43
2018-06-17T02:02:16.814Z,43.68
2018-06-17T02:04:59.952Z,40.15
2018-06-17T02:07:34.183Z,43.85
2018-06-17T02:10:08.406Z,44.75
2018-06-17T02:12:37.426Z,44.27
2018-06-17T02:15:06.617Z,40.88
2018-06-17T02:17:35.622Z,41.55
2018-06-17T02:20:04.948Z,44.60
2018-06-17T02:22:33.975Z,42.38
2018-06-17T02:25:03.062Z,40.12
2018-06-17T02:27:32.456Z,43.50
2018-06-17T02:30:01.509Z,42.30
2018-06-17T02:32:31.367Z,47.43
2018-06-17T02:35:00.433Z,46.05
2018-06-17T02:37:29.563Z,42.15
2018-06-17T02:39:58.949Z,39.50
2018-06-17T02:42:28.039Z,45.28
2018-06-17T02:45:02.438Z,39.80
2018-06-17T02:47:37.844Z,44.93
2018-06-17T02:50:12.307Z,40.65
2018-06-17T02:52:46.512Z,40.55
2018-06-17T02:55:15.597Z,44.18
2018-06-17T02:57:45.796Z,43.30
2018-06-17T03:00:14.698Z,43.27
2018-06-17T03:02:43.519Z,43.90
2018-06-17T03:05:12.520Z,48.53
2018-06-17T03:07:41.560Z,45.43
2018-06-17T03:10:12.373Z,51.50
2018-06-17T03:12:41.399Z,39.23
2018-06-17T03:15:11.628Z,48.17
2018-06-17T03:17:41.635Z,61.05
2018-06-17T03:20:10.649Z,51.33
2018-06-17T03:22:40.312Z,55.97
2018-06-17T03:25:14.637Z,58.70
2018-06-17T03:27:49.079Z,56.63
2018-06-17T03:30:23.481Z,49.70
2018-06-17T03:32:57.885Z,54.08
2018-06-17T03:36:35.916Z,52.13
2018-06-17T03:39:10.517Z,52.93
2018-06-17T03:41:39.519Z,54.80
2018-06-17T03:44:08.342Z,54.40
2018-06-17T03:46:37.208Z,47.35
2018-06-17T03:49:30.712Z,51.73
2018-06-17T03:51:59.765Z,48.25
2018-06-17T03:54:28.577Z,44.50
2018-06-17T03:56:57.455Z,46.00
2018-06-17T03:59:26.285Z,45.50
2018-06-17T04:01:54.974Z,42.48
2018-06-17T04:04:23.899Z,41.60
2018-06-17T04:06:52.985Z,44.85
2018-06-17T04:09:22.061Z,41.83
2018-06-17T04:11:51.283Z,42.23
2018-06-17T04:14:20.372Z,40.40
2018-06-17T04:16:49.445Z,40.48
2018-06-17T04:19:18.567Z,38.70
2018-06-17T04:21:48.842Z,41.20
2018-06-17T04:24:18.730Z,39.45
2018-06-17T04:26:49.742Z,38.70
2018-06-17T04:29:18.838Z,38.92
2018-06-17T04:31:48.856Z,36.25
2018-06-17T04:34:17.901Z,38.00
2018-06-17T04:36:47.046Z,39.92
2018-06-17T04:39:16.116Z,39.30
2018-06-17T04:41:45.232Z,33.08
2018-06-17T04:44:14.346Z,34.05
2018-06-17T04:46:43.396Z,28.77
2018-06-17T04:49:12.522Z,28.38
2018-06-17T04:51:41.626Z,28.52
2018-06-17T04:54:11.050Z,25.95
2018-06-17T04:56:40.222Z,23.73
2018-06-17T04:59:10.536Z,22.02
2018-06-17T05:01:39.715Z,21.62
2018-06-17T05:04:09.117Z,20.23
2018-06-17T05:06:38.489Z,17.12
2018-06-17T05:09:08.669Z,18.10
2018-06-17T05:11:39.035Z,16.95
2018-06-17T05:18:29.656Z,16.17
2018-06-17T05:20:58.847Z,17.30
2018-06-17T05:23:27.901Z,14.60
2018-06-17T05:25:56.966Z,16.57
2018-06-17T05:28:26.079Z,17.40
2018-06-17T05:30:58.063Z,15.93
2018-06-17T05:33:27.305Z,17.92
2018-06-17T05:35:56.151Z,16.80
2018-06-17T05:38:25.043Z,16.30
2018-06-17T05:40:54.576Z,15.38
2018-06-17T05:43:23.413Z,15.18
2018-06-17T05:45:52.404Z,14.75
2018-06-17T05:48:21.568Z,14.03
2018-06-17T05:50:50.400Z,13.30
2018-06-17T05:53:19.365Z,11.88
2018-06-17T05:55:48.535Z,11.03
2018-06-17T05:58:17.563Z,10.45
2018-06-17T06:00:47.838Z,13.70
2018-06-17T06:03:16.667Z,10.65
2018-06-17T06:05:45.675Z,12.90
2018-06-17T06:08:14.721Z,10.35
2018-06-17T06:10:44.599Z,9.05
2018-06-17T06:13:14.496Z,11.10
2018-06-17T06:15:43.674Z,11.57
2018-06-17T06:18:14.028Z,9.40
2018-06-17T06:20:43.180Z,9.30
2018-06-17T06:23:12.351Z,8.80
2018-06-17T06:25:41.437Z,7.97
2018-06-17T06:28:10.587Z,6.08
2018-06-17T06:30:43.786Z,7.92
2018-06-17T06:33:14.863Z,8.93
2018-06-17T06:35:44.062Z,7.83
2018-06-17T06:38:13.184Z,8.75
2018-06-17T06:40:42.249Z,9.15
2018-06-17T06:43:12.387Z,7.70
2018-06-17T06:45:41.697Z,7.22
2018-06-17T06:48:11.485Z,7.53
2018-06-17T06:50:41.802Z,8.88
2018-06-17T06:53:10.963Z,9.70
2018-06-17T06:55:40.019Z,7.53
2018-06-17T06:58:09.074Z,6.00
2018-06-17T07:00:39.309Z,6.22
2018-06-17T07:03:19.977Z,6.35
2018-06-17T07:06:00.358Z,6.70
2018-06-17T07:08:40.798Z,8.30
2018-06-17T07:11:09.870Z,7.47
2018-06-17T07:13:38.979Z,7.50
2018-06-17T07:16:20.666Z,6.50
2018-06-17T07:18:50.126Z,6.28
2018-06-17T07:21:19.077Z,6.05
2018-06-17T07:23:49.217Z,5.37
2018-06-17T07:26:47.989Z,6.70
2018-06-17T07:29:31.520Z,4.80
2018-06-17T07:32:00.366Z,6.58
2018-06-17T07:34:29.019Z,4.73
2018-06-17T07:36:57.717Z,7.33
2018-06-17T07:41:42.134Z,5.83
2018-06-17T07:44:11.337Z,8.28
2018-06-17T07:46:40.132Z,5.58
2018-06-17T07:49:31.797Z,5.62
2018-06-17T07:52:13.652Z,6.87
2018-06-17T07:54:43.204Z,8.87
2018-06-17T07:57:13.272Z,7.42
2018-06-17T07:59:42.020Z,7.00
2018-06-17T08:02:12.035Z,6.92
2018-06-17T08:04:40.692Z,6.78
2018-06-17T08:07:09.830Z,9.63
2018-06-17T08:09:38.975Z,7.67
2018-06-17T08:12:09.439Z,8.13
2018-06-17T08:14:39.406Z,6.97
2018-06-17T08:17:08.269Z,7.87
2018-06-17T08:19:37.355Z,7.28
2018-06-17T08:22:06.166Z,7.22
2018-06-17T08:24:36.123Z,7.87
2018-06-17T08:27:04.986Z,7.78
2018-06-17T08:29:35.808Z,16.50
2018-06-17T08:32:04.765Z,8.08
2018-06-17T08:34:33.540Z,7.95
2018-06-17T08:37:02.387Z,10.13
2018-06-17T08:39:30.999Z,7.30
2018-06-17T08:41:59.772Z,6.08
2018-06-17T08:44:28.577Z,6.75
2018-06-17T08:46:57.475Z,6.37
2018-06-17T08:49:27.202Z,6.42
2018-06-17T08:51:56.290Z,6.92
2018-06-17T08:54:26.147Z,6.35
2018-06-17T08:56:54.986Z,6.95
2018-06-17T08:59:24.106Z,5.03
2018-06-17T09:01:52.887Z,6.67
2018-06-17T09:04:21.528Z,8.03
2018-06-17T09:06:50.312Z,8.80
2018-06-17T09:09:19.111Z,8.90
2018-06-17T09:11:47.927Z,6.80
2018-06-17T09:14:16.763Z,6.07
2018-06-17T09:16:45.650Z,5.80
2018-06-17T09:19:14.507Z,5.20
2018-06-17T09:21:43.111Z,5.37
2018-06-17T09:24:11.901Z,5.85
2018-06-17T09:26:40.731Z,7.47
2018-06-17T09:29:09.580Z,6.87
2018-06-17T09:31:38.351Z,6.28
2018-06-17T09:34:07.176Z,6.17
2018-06-17T09:36:36.321Z,6.25
2018-06-17T09:39:07.576Z,5.62
2018-06-17T09:41:36.372Z,5.62
2018-06-17T09:44:05.217Z,4.70
2018-06-17T09:46:34.143Z,5.42
2018-06-17T09:49:28.982Z,7.27
2018-06-17T09:51:57.958Z,6.08
2018-06-17T09:54:26.672Z,6.53
2018-06-17T09:56:56.714Z,4.87
2018-06-17T09:59:25.552Z,9.80
2018-06-17T10:01:55.158Z,5.03
2018-06-17T10:04:24.003Z,6.87
2018-06-17T10:06:52.827Z,7.00
2018-06-17T10:09:21.746Z,6.45
2018-06-17T10:11:51.160Z,5.53
2018-06-17T10:14:20.266Z,6.40
2018-06-17T10:16:51.058Z,5.78
2018-06-17T10:19:20.111Z,9.03
2018-06-17T10:21:49.170Z,7.83
2018-06-17T10:24:18.195Z,4.65
2018-06-17T10:26:47.241Z,6.33
2018-06-17T10:29:16.345Z,6.97
2018-06-17T10:31:45.444Z,7.22
2018-06-17T10:34:14.463Z,5.87
2018-06-17T10:36:43.532Z,7.58
2018-06-17T10:39:12.515Z,7.60
2018-06-17T10:41:43.566Z,7.08
2018-06-17T10:44:13.491Z,7.78
2018-06-17T10:46:43.446Z,5.55
2018-06-17T10:49:19.060Z,7.50
2018-06-17T10:51:48.130Z,8.25
2018-06-17T10:54:17.211Z,6.75
2018-06-17T10:56:46.416Z,7.10
2018-06-17T10:59:15.517Z,9.18
2018-06-17T11:01:45.464Z,7.15
2018-06-17T11:04:15.460Z,5.10
2018-06-17T11:06:44.759Z,7.37
2018-06-17T11:09:13.819Z,5.90
2018-06-17T11:11:42.894Z,6.72
2018-06-17T11:14:11.937Z,6.67
2018-06-17T11:16:41.033Z,6.30
2018-06-17T11:19:10.092Z,5.95
2018-06-17T11:21:39.119Z,8.33
2018-06-17T11:24:09.757Z,5.67
2018-06-17T11:26:38.906Z,4.97
2018-06-17T11:29:07.932Z,9.28
2018-06-17T11:31:36.951Z,7.05
2018-06-17T11:34:06.060Z,5.78
2018-06-17T11:36:35.047Z,6.20
2018-06-17T11:39:05.553Z,7.42
2018-06-17T11:41:35.212Z,7.08
2018-06-17T11:44:04.245Z,6.72
2018-06-17T11:46:34.482Z,6.03
2018-06-17T11:49:03.605Z,10.48
2018-06-17T11:51:32.683Z,6.80
2018-06-17T11:54:01.790Z,11.12
2018-06-17T11:56:30.909Z,7.62
2018-06-17T11:58:59.888Z,7.80
2018-06-17T12:01:28.916Z,6.75
2018-06-17T12:03:57.920Z,6.30
2018-06-17T12:06:27.733Z,9.00
2018-06-17T12:08:56.762Z,5.53
2018-06-17T12:11:25.753Z,9.40
2018-06-17T12:13:55.053Z,5.15
2018-06-17T12:16:24.129Z,6.62
2018-06-17T12:18:53.321Z,7.50
2018-06-17T12:21:22.425Z,6.12
2018-06-17T12:23:51.443Z,7.37
2018-06-17T12:26:20.479Z,6.20
2018-06-17T12:28:49.817Z,6.87
2018-06-17T12:31:18.838Z,8.23
2018-06-17T12:33:47.925Z,6.75
2018-06-17T12:36:16.935Z,9.83
2018-06-17T12:38:46.114Z,8.20
2018-06-17T12:41:15.136Z,8.75
2018-06-17T12:43:45.292Z,9.65
2018-06-17T12:46:14.468Z,10.08
2018-06-17T12:48:43.462Z,10.90
2018-06-17T12:51:12.480Z,13.98
2018-06-17T12:53:41.562Z,14.95
2018-06-17T12:56:10.581Z,13.78
2018-06-17T12:58:39.611Z,12.80
2018-06-17T13:01:08.639Z,10.80
2018-06-17T13:03:37.755Z,11.50
2018-06-17T13:06:06.868Z,11.18
2018-06-17T13:08:35.877Z,8.68
2018-06-17T13:11:06.101Z,9.15
2018-06-17T13:13:35.187Z,12.43
2018-06-17T13:16:04.307Z,10.98
2018-06-17T13:18:33.113Z,11.18
2018-06-17T13:21:02.015Z,11.05
2018-06-17T13:23:31.080Z,11.57
2018-06-17T13:26:00.052Z,8.93
2018-06-17T13:28:29.038Z,10.82
2018-06-17T13:30:58.067Z,8.95
2018-06-17T13:33:27.848Z,7.55
2018-06-17T13:35:57.441Z,11.53
2018-06-17T13:38:26.456Z,8.23
2018-06-17T13:40:55.516Z,10.58
2018-06-17T13:43:25.316Z,10.28
2018-06-17T13:45:55.555Z,7.45
2018-06-17T13:48:24.522Z,11.60
2018-06-17T13:50:53.615Z,7.75
2018-06-17T13:53:22.606Z,11.48
2018-06-17T13:55:52.882Z,7.95
2018-06-17T13:58:21.868Z,7.87
2018-06-17T14:00:50.913Z,9.53
2018-06-17T14:03:20.008Z,6.87
2018-06-17T14:05:49.012Z,6.23
2018-06-17T14:08:20.465Z,7.33
2018-06-17T14:10:50.026Z,7.30
2018-06-17T14:13:18.906Z,6.07
2018-06-17T14:15:47.595Z,5.58
2018-06-17T14:18:16.498Z,7.22
2018-06-17T14:20:45.581Z,6.35
2018-06-17T14:23:14.582Z,5.70
2018-06-17T14:25:43.863Z,7.08
2018-06-17T14:28:12.880Z,7.42
2018-06-17T14:30:41.658Z,4.60
2018-06-17T14:33:10.628Z,7.42
2018-06-17T14:35:39.612Z,5.37
2018-06-17T14:38:08.690Z,9.60
2018-06-17T14:40:43.085Z,7.55
2018-06-17T14:43:17.415Z,8.63
2018-06-17T14:45:51.960Z,5.05
2018-06-17T14:48:26.333Z,5.67
2018-06-17T14:51:00.688Z,7.87
2018-06-17T14:53:29.784Z,4.15
2018-06-17T14:55:59.789Z,5.75
2018-06-17T14:58:28.841Z,4.87
2018-06-17T15:00:57.860Z,4.95
2018-06-17T15:03:26.996Z,5.45
2018-06-17T15:05:57.642Z,4.87
2018-06-17T15:08:26.721Z,4.50
2018-06-17T15:10:55.825Z,7.50
2018-06-17T15:13:24.898Z,4.55
2018-06-17T15:15:55.412Z,4.95
2018-06-17T15:18:24.408Z,4.47
2018-06-17T15:20:53.495Z,10.43
2018-06-17T15:23:22.524Z,5.58
2018-06-17T15:25:51.607Z,3.80
2018-06-17T15:28:20.651Z,10.03
2018-06-17T15:30:49.706Z,5.37
2018-06-17T15:33:24.672Z,6.00
2018-06-17T15:35:59.918Z,6.24
2018-06-17T15:38:34.531Z,5.25
2018-06-17T15:41:08.947Z,5.72
2018-06-17T15:43:41.707Z,5.00
2018-06-17T15:46:10.740Z,4.80
2018-06-17T15:48:40.424Z,6.03
2018-06-17T15:54:16.618Z,7.50
2018-06-17T15:56:47.271Z,4.33
2018-06-17T15:59:17.497Z,6.08
2018-06-17T16:01:46.532Z,5.67
2018-06-17T16:04:20.143Z,5.10
2018-06-17T16:06:52.684Z,6.37
2018-06-17T16:09:23.440Z,6.10
2018-06-17T16:13:03.712Z,7.50
2018-06-17T16:15:40.452Z,6.00
2018-06-17T16:18:18.935Z,5.77
2018-06-17T16:20:55.641Z,7.37
2018-06-17T16:23:26.710Z,5.97
2018-06-17T16:25:58.776Z,4.47
2018-06-17T16:28:30.300Z,6.08
2018-06-17T16:31:03.197Z,6.20
2018-06-17T16:33:36.659Z,6.33
2018-06-17T16:36:10.278Z,7.45
2018-06-17T16:38:43.928Z,5.80
2018-06-17T16:41:14.795Z,4.67
2018-06-17T16:43:51.576Z,8.25
2018-06-17T16:46:20.915Z,6.17
2018-06-17T16:48:53.224Z,6.40
2018-06-17T16:51:28.163Z,7.22
2018-06-17T16:54:02.535Z,5.30
2018-06-17T16:56:37.078Z,5.37
2018-06-17T16:59:11.491Z,7.95
2018-06-17T17:01:40.675Z,6.25
2018-06-17T17:04:09.944Z,6.12
2018-06-17T17:06:38.816Z,6.80
2018-06-17T17:09:09.503Z,7.00
2018-06-17T17:11:40.307Z,8.20
2018-06-17T17:14:10.075Z,5.80
2018-06-17T17:16:39.388Z,5.97
2018-06-17T17:19:08.455Z,5.28
2018-06-17T17:21:37.638Z,7.33
2018-06-17T17:24:06.977Z,5.75
2018-06-17T17:26:36.142Z,7.30
2018-06-17T17:29:05.298Z,5.67
2018-06-17T17:31:41.114Z,7.28
2018-06-17T17:34:15.875Z,8.50
2018-06-17T17:36:50.551Z,7.60
2018-06-17T17:39:25.767Z,8.78
2018-06-17T17:41:55.820Z,7.42
2018-06-17T17:44:25.028Z,7.80
2018-06-17T17:46:59.591Z,6.95
2018-06-17T17:49:28.736Z,5.62
2018-06-17T17:51:57.844Z,5.50
2018-06-17T17:54:27.031Z,6.22
2018-06-17T17:56:56.160Z,4.47
2018-06-17T17:59:25.020Z,7.30
2018-06-17T18:01:57.810Z,9.50
2018-06-17T18:04:27.096Z,7.10
2018-06-17T18:06:56.262Z,6.35
2018-06-17T18:09:26.290Z,5.80
2018-06-17T18:11:55.356Z,7.58
2018-06-17T18:14:24.464Z,5.92
2018-06-17T18:16:53.612Z,7.83
2018-06-17T18:19:22.782Z,6.20
2018-06-17T18:21:52.066Z,5.33
2018-06-17T18:24:21.402Z,7.30
2018-06-17T18:26:56.749Z,6.45
2018-06-17T18:30:29.055Z,6.37
2018-06-17T18:33:03.542Z,7.37
2018-06-17T18:35:38.337Z,4.55
2018-06-17T18:38:07.647Z,5.55
2018-06-17T18:40:36.871Z,6.95
2018-06-17T18:43:08.244Z,5.62
2018-06-17T18:45:38.651Z,5.60
2018-06-17T18:48:07.874Z,5.58
2018-06-17T18:50:37.152Z,5.40
2018-06-17T18:53:06.657Z,6.45
2018-06-17T18:55:36.138Z,6.97
2018-06-17T18:58:06.613Z,8.08
2018-06-17T19:00:36.708Z,4.75
2018-06-17T19:03:05.847Z,7.70
2018-06-17T19:05:36.383Z,7.20
2018-06-17T19:08:08.498Z,9.15
2018-06-17T19:10:43.500Z,9.85
2018-06-17T19:13:18.401Z,5.08
2018-06-17T19:15:52.993Z,6.80
2018-06-17T19:18:22.724Z,7.12
2018-06-17T19:20:52.067Z,10.95
2018-06-17T19:23:21.222Z,7.87
2018-06-17T19:25:50.741Z,6.70
2018-06-17T19:28:19.905Z,8.47
2018-06-17T19:30:49.316Z,8.88
2018-06-17T19:33:18.510Z,8.35
2018-06-17T19:35:47.660Z,7.25
2018-06-17T19:38:17.096Z,7.10
2018-06-17T19:40:46.246Z,6.57
2018-06-17T19:43:15.996Z,11.00
2018-06-17T19:45:45.193Z,7.90
2018-06-17T19:48:14.291Z,5.97
2018-06-17T19:50:48.953Z,7.20
2018-06-17T19:53:23.465Z,10.10
2018-06-17T19:55:57.941Z,12.03
2018-06-17T19:58:33.812Z,10.65
2018-06-17T20:01:04.184Z,7.42
2018-06-17T20:03:33.542Z,7.53
2018-06-17T20:06:02.797Z,7.60
2018-06-17T20:08:32.190Z,9.63
2018-06-17T20:11:01.434Z,9.88
2018-06-17T20:13:30.553Z,8.70
2018-06-17T20:15:59.869Z,10.48
2018-06-17T20:18:29.853Z,9.93
2018-06-17T20:20:59.101Z,9.85
2018-06-17T20:23:28.791Z,11.38
2018-06-17T20:25:58.545Z,8.35
2018-06-17T20:28:27.617Z,9.50
2018-06-17T20:31:01.030Z,9.90
2018-06-17T20:33:35.499Z,9.03
2018-06-17T20:36:09.963Z,8.23
2018-06-17T20:38:44.633Z,6.87
2018-06-17T20:41:19.123Z,7.93
2018-06-17T20:43:51.840Z,8.00
2018-06-17T20:46:20.956Z,9.40
2018-06-17T20:48:50.494Z,8.18
2018-06-17T20:51:20.157Z,13.55
2018-06-17T20:53:49.445Z,8.70
2018-06-17T20:56:18.537Z,9.98
2018-06-17T20:58:47.672Z,8.68
2018-06-17T21:01:16.751Z,6.72
2018-06-17T21:03:45.843Z,7.80
2018-06-17T21:06:15.022Z,8.33
2018-06-17T21:08:44.221Z,8.85
2018-06-17T21:11:13.336Z,6.92
2018-06-17T21:13:42.448Z,7.70
2018-06-17T21:16:11.523Z,8.38
2018-06-17T21:18:46.023Z,8.30
2018-06-17T21:21:20.541Z,8.95
2018-06-17T21:23:55.084Z,9.33
2018-06-17T21:26:29.622Z,8.43
2018-06-17T21:28:58.667Z,7.90
2018-06-17T21:31:27.712Z,9.37
2018-06-17T21:33:56.487Z,8.38
2018-06-17T21:36:25.568Z,12.13
2018-06-17T21:38:54.599Z,8.73
2018-06-17T21:41:23.673Z,11.97
2018-06-17T21:43:52.645Z,7.65
2018-06-17T21:46:21.790Z,11.23
2018-06-17T21:48:50.825Z,10.08
2018-06-17T21:51:19.941Z,7.22
2018-06-17T21:53:49.007Z,11.90
2018-06-17T21:56:21.130Z,11.30
2018-06-17T21:58:50.116Z,14.30
2018-06-17T22:01:19.747Z,10.98
2018-06-17T22:03:48.634Z,11.70
2018-06-17T22:06:17.676Z,13.10
2018-06-17T22:08:52.154Z,9.80
2018-06-17T22:11:26.556Z,8.75
2018-06-17T22:14:01.007Z,12.33
2018-06-17T22:16:36.093Z,12.03
2018-06-17T22:19:05.269Z,10.80
2018-06-17T22:21:34.375Z,14.10
2018-06-17T22:24:03.379Z,8.30
2018-06-17T22:26:32.172Z,11.08
2018-06-17T22:29:02.204Z,10.83
2018-06-17T22:31:31.220Z,11.17
2018-06-17T22:34:00.296Z,9.95
2018-06-17T22:36:30.167Z,7.90
2018-06-17T22:39:00.233Z,13.43
2018-06-17T22:41:29.253Z,9.60
2018-06-17T22:43:58.276Z,10.78
2018-06-17T22:46:28.415Z,10.43
2018-06-17T22:48:58.218Z,11.83
2018-06-17T22:51:27.236Z,9.70
2018-06-17T22:54:07.799Z,12.63
2018-06-17T22:56:42.360Z,12.63
2018-06-17T22:59:16.658Z,10.43
2018-06-17T23:01:51.221Z,10.07
2018-06-17T23:04:25.744Z,12.67
2018-06-17T23:07:00.244Z,12.93
2018-06-17T23:09:32.624Z,12.07
2018-06-17T23:12:01.941Z,11.63
2018-06-17T23:14:32.142Z,11.63
2018-06-17T23:17:01.484Z,11.03
2018-06-17T23:19:30.655Z,12.20
2018-06-17T23:22:00.923Z,9.97
2018-06-17T23:24:29.960Z,14.07
2018-06-17T23:26:58.967Z,10.40
2018-06-17T23:29:29.241Z,9.47
2018-06-17T23:31:58.260Z,13.97
2018-06-17T23:34:27.309Z,11.10
2018-06-17T23:36:56.980Z,10.90
2018-06-17T23:39:26.766Z,10.67
2018-06-17T23:41:55.881Z,8.63
2018-06-17T23:44:24.987Z,11.70
2018-06-17T23:47:00.935Z,11.90
2018-06-17T23:49:35.532Z,11.15
2018-06-17T23:52:10.020Z,9.13
2018-06-17T23:54:44.487Z,11.70
2018-06-17T23:57:13.570Z,10.83
2018-06-17T23:59:42.616Z,11.80
